Americus, GA

9:40 PM EDT on July 22, 2014 (GMT -0400)
Wildwood Circle (KGAAMERI2) Elev 402 ft | 32.06 °N, 84.21 °W | Change Station

Current weather conditions updated 10 minutes ago

Overcast
Overcast
75.7 °F
Feels Like 74 °F
N
0.0
Wind Variable Wind from North
Gusts 0.0 mph

Tomorrow is forecast to be Warmer than today.

Today
High -- | Low -- °F
--% Chance of Precip.
Yesterday
High -- | Low -- °F
Precip. -- in
6:45 AM 8:40 PM
Waning Crescent, 13% visible
Pressure 30.09 in
Visibility 10.0 miles
Clouds Mostly Cloudy 9000 ft
Heat Index 74 °F
Dew Point 75 °F
Humidity 98%
Rainfall 0.05 in
Snow Depth Not available.
UV 0 out of 12
Pollen 2.80 out of 12
Air Quality Not available.
Flu Activity Not available.
METAR KACJ 230115Z AUTO 00000KT 10SM BKN090 25/23 A3009 RMK AO2

More Conditions Fewer Conditions

Pressure 30.09 in
Visibility 10.0 miles
Clouds Mostly Cloudy 9000 ft
Heat Index 74 °F
Dew Point 75 °F
Humidity 98%
Rainfall 0.05 in
Snow Depth Not available.
UV 0 out of 12
Pollen 2.80 out of 12
Air Quality Not available.
Flu Activity Not available.
METAR KACJ 230115Z AUTO 00000KT 10SM BKN090 25/23 A3009 RMK AO2

More Conditions Fewer Conditions

10-Day Weather Forecast

Almanac

Astronomy

Jul. 22, 2014 Rise Set
Actual Time 6:45 AM EDT 8:40 PM EDT
Civil Twilight 6:18 AM EDT 9:08 PM EDT
Nautical Twilight 5:45 AM EDT 9:40 PM EDT
Astronomical Twilight 5:10 AM EDT 10:16 PM EDT
Moon 3:15 AM EDT (7/22) 5:19 PM EDT (7/22)
Length of Visible Light 14h 49m
Length of Day
13h 55m
Tomorrow will be 1m 13s shorter.
Waning Crescent, 13% of the Moon is Illuminated
Today
Waning Crescent
Jul 26
New
Aug 3
First Quarter
Aug 10
Full
Aug 17
Last Quarter

Today's Extremes

State Highs State Lows

Community

WunderPhotos

Upload Photos

1,736,438 photos uploaded!

Nearby

Snow Depth

Station Depth Elevation
No new snow has been reported.

Earthquake Activity

City Distance Mag. Time & Date
No recent earthquake activity has been reported nearby.
Minimum magnitude displayed is 2.5.

Coastal Water Temperatures

Place Temperature
No Stations Reporting

Nearby Weather Stations

Station Location Temp. Heat Index Dew Point Humidity Wind Precip. Elev Updated Type
Wildwood Circle, Americus, GA 75.7 °F 74 °F 75 °F 98% North  at  0.0 mph 0.00 in / hr 402 ft 9:30 PM EDT Normal
RAWS AMERICUS/PLAINS GA, Americus, GA 77 °F 78 °F 72 °F 86% NE  at  3 mph 0.00 in / hr 456 ft 9:03 PM EDT MADIS
RAWS BYROMVILLE GA, Byromville, GA 79 °F 82 °F 73 °F 82% NW  at  1 mph 0.00 in / hr 321 ft 8:05 PM EDT MADIS
Cobb, Cobb, GA 75.5 °F 75 °F 73 °F 92% East  at  0.0 mph 0.00 in / hr 285 ft 9:39 PM EDT Normal

Show More Stations Show Fewer Stations